Time;durP1;ratioP1;P1;durP2;ratioP2;P2;SDS_P1;SDS_P2;PMS_P1;PMS_P2;Temp;Humidity;BMP_temperature;BMP_pressure;BME280_temperature;BME280_humidity;BME280_pressure;Samples;Min_cycle;Max_cycle;Signal;HPM_P1;HPM_P2
2023/03/09 00:00:46;;;;;;;6.90;6.32;;;;;;;2.40;100.00;98427.91;6055900;23;20041;-74
2023/03/09 00:03:15;;;;;;;5.82;5.22;;;;;;;2.53;100.00;98512.69;6106717;23;20527;-76
2023/03/09 00:05:43;;;;;;;5.72;5.22;;;;;;;2.38;100.00;98504.81;6076054;23;20037;-75
2023/03/09 00:08:10;;;;;;;4.72;4.45;;;;;;;2.43;100.00;98527.03;6105141;23;20025;-75
2023/03/09 00:10:40;;;;;;;5.13;4.68;;;;;;;2.10;100.00;98455.47;6079456;23;20550;-73
2023/03/09 00:13:07;;;;;;;6.20;5.70;;;;;;;2.56;100.00;98534.03;6107103;23;20021;-73
2023/03/09 00:15:33;;;;;;;5.53;4.90;;;;;;;2.34;100.00;98485.19;6077914;23;20049;-73
2023/03/09 00:18:00;;;;;;;6.00;5.28;;;;;;;2.42;100.00;98464.06;6106084;23;20457;-74
2023/03/09 00:20:26;;;;;;;6.88;5.90;;;;;;;2.65;100.00;98493.88;6051591;23;20073;-73
2023/03/09 00:22:54;;;;;;;5.25;4.95;;;;;;;2.70;100.00;98507.41;6058234;23;20049;-75
2023/03/09 00:25:22;;;;;;;5.47;5.03;;;;;;;2.45;100.00;98450.97;6108496;23;20400;-76
2023/03/09 00:27:51;;;;;;;8.43;5.18;;;;;;;1.78;100.00;98354.56;6079048;23;20030;-73
2023/03/09 00:30:18;;;;;;;4.53;4.13;;;;;;;2.21;100.00;98388.44;6085806;23;20041;-76
2023/03/09 00:32:45;;;;;;;6.55;5.95;;;;;;;2.26;100.00;98414.88;6052754;23;20030;-74
2023/03/09 00:35:12;;;;;;;7.10;6.05;;;;;;;2.67;100.00;98484.28;6055864;23;20025;-73
2023/03/09 00:37:38;;;;;;;7.15;6.40;;;;;;;2.71;100.00;98495.31;6077658;23;20028;-75
2023/03/09 00:40:06;;;;;;;12.80;5.68;;;;;;;2.38;100.00;98426.31;6029370;23;20030;-76
2023/03/09 00:42:33;;;;;;;4.78;4.47;;;;;;;2.75;100.00;98483.84;6104664;23;20558;-75
2023/03/09 00:45:00;;;;;;;5.78;5.38;;;;;;;2.46;100.00;98438.84;6081302;23;20014;-75
2023/03/09 00:47:27;;;;;;;6.78;5.65;;;;;;;2.44;100.00;98456.22;6111114;23;20251;-74
2023/03/09 00:49:53;;;;;;;6.68;5.80;;;;;;;2.47;100.00;98453.47;6063498;23;20029;-74
2023/03/09 00:52:20;;;;;;;6.00;5.50;;;;;;;2.79;100.00;98506.91;6114485;23;20055;-75
2023/03/09 00:54:46;;;;;;;7.53;5.28;;;;;;;2.77;100.00;98519.09;6086248;23;20030;-75
2023/03/09 00:57:12;;;;;;;5.28;4.88;;;;;;;2.37;100.00;98453.16;6092812;23;20017;-76
2023/03/09 00:59:44;;;;;;;7.13;6.40;;;;;;;2.42;100.00;98455.47;6067146;23;20030;-75
2023/03/09 01:02:10;;;;;;;5.10;4.67;;;;;;;2.69;100.00;98518.69;6063747;23;20029;-75
2023/03/09 01:04:37;;;;;;;6.95;6.43;;;;;;;2.83;100.00;98509.31;6059019;23;20073;-75
2023/03/09 01:07:04;;;;;;;5.85;5.43;;;;;;;2.80;100.00;98510.31;6113197;23;20059;-73
2023/03/09 01:09:30;;;;;;;5.90;5.47;;;;;;;2.23;100.00;98422.00;6089506;23;20429;-72
2023/03/09 01:11:57;;;;;;;14.43;5.40;;;;;;;2.46;100.00;98451.78;6112452;23;20594;-75
2023/03/09 01:14:23;;;;;;;7.03;6.43;;;;;;;2.86;100.00;98506.56;6082496;23;20049;-74
2023/03/09 01:16:50;;;;;;;6.78;6.13;;;;;;;1.24;100.00;98250.63;6107514;23;20619;-73
2023/03/09 01:19:16;;;;;;;6.03;5.43;;;;;;;2.77;100.00;98505.31;6056280;23;20050;-73
2023/03/09 01:21:43;;;;;;;5.47;4.97;;;;;;;2.80;100.00;98513.72;6108381;23;20536;-72
2023/03/09 01:24:09;;;;;;;6.63;6.03;;;;;;;2.70;100.00;98503.97;6083857;23;20030;-76
2023/03/09 01:26:35;;;;;;;6.20;5.68;;;;;;;2.82;100.00;98510.22;6110776;23;20021;-75
2023/03/09 01:29:02;;;;;;;8.75;7.03;;;;;;;2.71;100.00;98490.13;6086236;23;20163;-73
2023/03/09 01:31:28;;;;;;;6.68;6.07;;;;;;;2.81;100.00;98506.81;6111260;23;20025;-73
2023/03/09 01:33:55;;;;;;;6.40;5.88;;;;;;;2.33;100.00;98430.94;6082715;23;20014;-74
2023/03/09 01:36:21;;;;;;;7.57;6.57;;;;;;;2.73;100.00;98520.19;6083376;23;20591;-74
2023/03/09 01:38:50;;;;;;;6.10;5.60;;;;;;;2.63;100.00;98524.19;6054827;23;20065;-77
2023/03/09 01:41:19;;;;;;;6.60;6.03;;;;;;;1.86;100.00;98400.69;6081731;23;20477;-72
2023/03/09 01:43:47;;;;;;;11.45;5.93;;;;;;;2.57;100.00;98512.44;6054015;23;20014;-76
2023/03/09 01:46:20;;;;;;;5.22;4.45;;;;;;;2.64;100.00;98551.75;6106884;23;20120;-71
2023/03/09 01:48:50;;;;;;;6.97;6.28;;;;;;;2.59;100.00;98553.78;6037073;23;20428;-72
2023/03/09 01:51:18;;;;;;;6.85;6.18;;;;;;;2.35;100.00;98538.63;6110138;23;20029;-74
2023/03/09 01:53:46;;;;;;;6.57;5.97;;;;;;;2.04;100.00;98479.06;6078577;23;20213;-72
2023/03/09 01:56:16;;;;;;;4.93;4.63;;;;;;;2.37;100.00;98530.78;6101654;23;20399;-73
2023/03/09 01:58:43;;;;;;;6.15;5.63;;;;;;;2.23;100.00;98536.69;6081058;23;20472;-74
2023/03/09 02:01:10;;;;;;;4.63;4.35;;;;;;;2.24;100.00;98559.06;6111073;23;20161;-72
2023/03/09 02:03:42;;;;;;;7.43;4.05;;;;;;;2.03;100.00;98527.41;6080575;23;20078;-71
2023/03/09 02:06:14;;;;;;;9.75;6.13;;;;;;;1.96;100.00;98536.38;6081667;23;20014;-74
2023/03/09 02:08:49;;;;;;;6.65;5.18;;;;;;;2.24;100.00;98621.16;6059207;23;20360;-75
2023/03/09 02:11:16;;;;;;;7.47;4.82;;;;;;;2.18;100.00;98573.16;6107033;23;20027;-74
2023/03/09 02:13:47;;;;;;;6.55;4.90;;;;;;;1.92;100.00;98543.44;6081779;23;20025;-74
2023/03/09 02:16:14;;;;;;;6.32;5.88;;;;;;;1.84;100.00;98537.84;6052209;23;20358;-76
2023/03/09 02:18:40;;;;;;;6.07;5.47;;;;;;;2.31;100.00;98635.47;6076490;23;20053;-76
2023/03/09 02:21:37;;;;;;;4.55;4.30;;;;;;;2.29;100.00;98642.50;6108255;23;20030;-76
2023/03/09 02:24:45;;;;;;;7.55;6.75;;;;;;;2.02;100.00;98607.66;6053929;23;20346;-76
2023/03/09 02:27:23;;;;;;;5.45;5.13;;;;;;;2.24;100.00;98644.47;5955155;23;20251;-77
2023/03/09 02:29:51;;;;;;;7.70;6.35;;;;;;;2.26;100.00;98650.41;6042538;23;20026;-73
2023/03/09 02:32:18;;;;;;;6.18;4.93;;;;;;;1.82;100.00;98588.81;6054969;23;20082;-75
2023/03/09 02:34:45;;;;;;;6.22;5.72;;;;;;;2.28;100.00;98655.50;6085781;23;20362;-75
2023/03/09 02:37:32;;;;;;;6.05;5.25;;;;;;;2.09;100.00;98664.19;6105806;23;20417;-76
2023/03/09 02:40:05;;;;;;;4.82;4.43;;;;;;;2.05;100.00;98667.03;6058556;23;20434;-77
2023/03/09 02:42:31;;;;;;;4.18;3.65;;;;;;;1.67;100.00;98651.66;6107701;23;20031;-74
2023/03/09 02:44:58;;;;;;;8.65;4.35;;;;;;;1.61;100.00;98639.84;6079781;23;20034;-75
2023/03/09 02:47:24;;;;;;;5.40;4.93;;;;;;;1.52;100.00;98642.88;6110685;23;20026;-73
2023/03/09 02:49:51;;;;;;;9.30;4.47;;;;;;;1.20;100.00;98601.31;6084471;23;20033;-71
2023/03/09 02:52:17;;;;;;;4.07;3.83;;;;;;;1.64;100.00;98673.28;6051137;23;20026;-74
2023/03/09 02:54:44;;;;;;;5.32;4.90;;;;;;;1.83;100.00;98693.13;6085874;18;20026;-76
2023/03/09 02:57:11;;;;;;;4.93;4.55;;;;;;;1.13;100.00;98608.53;6048129;23;20444;-77
2023/03/09 02:59:37;;;;;;;4.97;4.47;;;;;;;0.17;100.00;98453.81;6050299;23;20034;-77
2023/03/09 03:02:04;;;;;;;6.45;5.28;;;;;;;1.41;100.00;98651.16;6039707;23;20076;-77
2023/03/09 03:04:31;;;;;;;6.15;5.57;;;;;;;1.31;100.00;98643.00;6041960;23;20522;-76
2023/03/09 03:06:57;;;;;;;6.57;5.47;;;;;;;1.16;100.00;98600.66;6022469;23;20030;-77
2023/03/09 03:09:24;;;;;;;5.05;4.60;;;;;;;1.41;100.00;98639.97;6045589;23;20029;-77
2023/03/09 03:11:50;;;;;;;7.15;4.20;;;;;;;0.97;100.00;98576.59;6018298;23;20050;-77
2023/03/09 03:14:17;;;;;;;3.70;3.50;;;;;;;1.94;100.00;98722.69;6043623;23;20186;-77
2023/03/09 03:16:43;;;;;;;4.38;4.18;;;;;;;1.81;100.00;98713.88;6014835;23;20023;-77
2023/03/09 03:19:10;;;;;;;4.78;3.90;;;;;;;1.90;100.00;98735.84;6043297;23;20046;-77
2023/03/09 03:21:36;;;;;;;5.70;5.20;;;;;;;1.31;100.00;98660.25;6015355;23;20009;-78
2023/03/09 03:24:02;;;;;;;7.53;5.13;;;;;;;1.12;100.00;98650.78;6042260;23;20092;-78
2023/03/09 03:26:29;;;;;;;6.53;4.57;;;;;;;0.93;100.00;98619.78;6048212;23;20085;-78
2023/03/09 03:28:55;;;;;;;6.82;6.35;;;;;;;1.22;100.00;98668.41;6018889;23;20034;-77
2023/03/09 03:31:24;;;;;;;7.35;4.95;;;;;;;1.64;100.00;98737.09;6042282;23;20015;-77
2023/03/09 03:33:51;;;;;;;14.05;4.22;;;;;;;0.78;100.00;98582.63;6018121;23;20109;-77
2023/03/09 03:36:17;;;;;;;4.22;4.03;;;;;;;0.81;100.00;98596.28;6022719;23;20018;-77
2023/03/09 03:38:43;;;;;;;4.80;4.40;;;;;;;1.42;100.00;98694.16;6019637;23;20571;-77
2023/03/09 03:41:10;;;;;;;4.80;4.40;;;;;;;1.14;100.00;98638.63;6024282;23;20018;-77
2023/03/09 03:43:36;;;;;;;15.15;4.53;;;;;;;1.51;100.00;98739.44;6045354;23;20025;-78
2023/03/09 03:46:03;;;;;;;9.48;5.30;;;;;;;1.17;100.00;98692.72;6025276;23;20003;-77
2023/03/09 03:48:29;;;;;;;4.05;3.75;;;;;;;0.84;100.00;98634.84;6024091;23;20869;-77
2023/03/09 03:50:56;;;;;;;5.25;4.85;;;;;;;1.19;100.00;98701.25;6050079;23;20042;-78
2023/03/09 03:53:22;;;;;;;5.60;4.65;;;;;;;1.51;100.00;98752.34;6054651;23;20047;-77
2023/03/09 03:55:48;;;;;;;3.92;3.72;;;;;;;0.11;100.00;98528.91;6073838;23;20022;-78
2023/03/09 03:58:15;;;;;;;7.10;4.43;;;;;;;1.15;100.00;98691.13;6053557;23;20035;-78
2023/03/09 04:00:41;;;;;;;5.80;5.40;;;;;;;1.19;100.00;98729.66;6085273;23;20040;-78
2023/03/09 04:03:07;;;;;;;5.63;5.30;;;;;;;1.38;100.00;98755.50;6076403;23;20002;-77
2023/03/09 04:05:34;;;;;;;6.95;6.43;;;;;;;1.03;100.00;98702.84;6087634;23;20127;-77
2023/03/09 04:08:00;;;;;;;5.18;4.72;;;;;;;1.07;100.00;98699.22;6057623;23;20018;-77
2023/03/09 04:10:27;;;;;;;4.80;4.05;;;;;;;1.06;100.00;98713.03;6058111;23;20088;-77
2023/03/09 04:12:53;;;;;;;3.85;3.58;;;;;;;0.79;100.00;98679.81;6056706;23;20089;-78
2023/03/09 04:15:19;;;;;;;5.68;5.28;;;;;;;1.21;100.00;98758.03;6080062;23;20030;-78
2023/03/09 04:17:47;;;;;;;3.80;3.60;;;;;;;-0.11;100.00;98539.31;6080253;23;20037;-77
2023/03/09 04:20:14;;;;;;;4.88;4.57;;;;;;;1.47;100.00;98779.25;6078112;23;20089;-77
2023/03/09 04:22:41;;;;;;;5.40;4.97;;;;;;;0.76;100.00;98656.72;6060059;23;20018;-78
2023/03/09 04:25:08;;;;;;;4.38;4.03;;;;;;;1.26;100.00;98765.56;6083929;23;20562;-78
2023/03/09 04:27:34;;;;;;;4.85;4.45;;;;;;;1.41;100.00;98785.53;6054013;23;20058;-77
2023/03/09 04:30:01;;;;;;;5.60;5.05;;;;;;;1.17;100.00;98743.56;6079759;23;20049;-77
2023/03/09 04:32:27;;;;;;;5.82;5.43;;;;;;;1.51;100.00;98794.56;6076056;23;20558;-77
2023/03/09 04:34:54;;;;;;;8.50;4.68;;;;;;;1.39;100.00;98785.59;6053672;23;20049;-78
2023/03/09 04:37:20;;;;;;;7.82;5.38;;;;;;;0.85;100.00;98688.19;6083647;23;20041;-78
2023/03/09 04:39:46;;;;;;;10.65;6.40;;;;;;;1.75;100.00;98838.28;6078396;23;20030;-78
2023/03/09 04:42:13;;;;;;;5.97;5.47;;;;;;;1.82;100.00;98856.94;6080874;23;20022;-78
2023/03/09 04:44:39;;;;;;;4.88;4.68;;;;;;;1.76;100.00;98843.41;6078181;23;20034;-77
2023/03/09 04:47:06;;;;;;;7.05;6.30;;;;;;;1.75;100.00;98828.78;6077318;23;20014;-77
2023/03/09 04:49:32;;;;;;;6.18;5.75;;;;;;;1.58;100.00;98814.06;6033383;23;20034;-77
2023/03/09 04:51:59;;;;;;;5.63;5.03;;;;;;;1.32;100.00;98791.13;6084305;23;20018;-78
2023/03/09 04:54:25;;;;;;;10.48;5.05;;;;;;;1.65;100.00;98834.47;6031241;23;20543;-78
2023/03/09 04:56:51;;;;;;;5.95;5.55;;;;;;;1.74;100.00;98867.63;6084511;23;20069;-80
2023/03/09 04:59:18;;;;;;;3.42;3.33;;;;;;;1.13;100.00;98773.03;6056731;23;20217;-77
2023/03/09 05:01:44;;;;;;;5.85;5.38;;;;;;;1.43;100.00;98814.75;6102471;23;20546;-77
2023/03/09 05:04:11;;;;;;;4.43;3.90;;;;;;;1.42;100.00;98825.97;6076963;23;20595;-78
2023/03/09 05:06:37;;;;;;;21.95;6.78;;;;;;;1.28;100.00;98811.09;6082924;23;20049;-78
2023/03/09 05:09:05;;;;;;;6.18;5.68;;;;;;;1.21;100.00;98798.53;6055950;23;20025;-77
2023/03/09 05:11:32;;;;;;;5.07;4.72;;;;;;;1.05;100.00;98765.63;6072949;23;20018;-77
2023/03/09 05:14:01;;;;;;;4.95;4.63;;;;;;;0.71;100.00;98715.44;6105567;23;20029;-79
2023/03/09 05:16:27;;;;;;;5.65;5.28;;;;;;;1.29;100.00;98799.03;6076811;23;20035;-78
2023/03/09 05:18:56;;;;;;;7.65;4.85;;;;;;;1.14;100.00;98772.97;6084187;23;20038;-78
2023/03/09 05:21:22;;;;;;;4.60;4.30;;;;;;;0.79;100.00;98713.38;6070725;23;20069;-79
2023/03/09 05:23:48;;;;;;;5.40;4.80;;;;;;;0.09;100.00;98673.38;6062228;23;20080;-78
2023/03/09 05:26:15;;;;;;;6.60;5.22;;;;;;;1.10;100.00;98807.59;6076998;23;20026;-77
2023/03/09 05:28:41;;;;;;;6.70;6.03;;;;;;;0.96;100.00;98782.38;6079773;23;20033;-78
2023/03/09 05:31:10;;;;;;;6.75;6.15;;;;;;;1.71;100.00;98914.34;6054282;23;20783;-78
2023/03/09 05:33:37;;;;;;;6.28;5.72;;;;;;;1.71;100.00;98912.59;6076694;23;20024;-77
2023/03/09 05:36:24;;;;;;;6.65;6.07;;;;;;;1.61;100.00;98882.88;6081106;23;20010;-76
2023/03/09 05:38:51;;;;;;;5.95;5.47;;;;;;;1.63;100.00;98908.66;6076977;23;20092;-77
2023/03/09 05:41:19;;;;;;;4.60;4.35;;;;;;;1.71;100.00;98922.09;6057744;23;20653;-76
2023/03/09 05:43:45;;;;;;;4.93;4.63;;;;;;;1.75;100.00;98915.88;6072225;23;20042;-78
2023/03/09 05:46:16;;;;;;;6.03;5.53;;;;;;;1.28;100.00;98846.44;6069041;23;20018;-78
2023/03/09 05:48:45;;;;;;;4.72;4.32;;;;;;;1.84;100.00;98948.22;6075729;23;20089;-77
2023/03/09 05:51:11;;;;;;;5.13;4.45;;;;;;;1.28;100.00;98846.44;6047947;23;20023;-77
2023/03/09 05:53:38;;;;;;;5.07;4.60;;;;;;;1.82;100.00;98932.78;6075157;23;20033;-77
2023/03/09 05:56:06;;;;;;;5.78;5.28;;;;;;;1.86;100.00;98936.06;6045468;23;20216;-77
2023/03/09 05:58:34;;;;;;;4.88;4.47;;;;;;;1.44;100.00;98869.84;6078351;23;20030;-75
2023/03/09 06:01:01;;;;;;;4.88;4.57;;;;;;;1.92;100.00;98936.63;6053822;23;20670;-77
2023/03/09 06:03:28;;;;;;;5.90;5.38;;;;;;;1.46;100.00;98862.88;6080942;23;20043;-78
2023/03/09 06:06:03;;;;;;;9.55;7.40;;;;;;;1.78;100.00;98918.31;6076620;23;20053;-78
2023/03/09 06:08:30;;;;;;;5.05;4.65;;;;;;;1.90;100.00;98943.63;6083833;23;20050;-77
2023/03/09 06:10:58;;;;;;;7.32;5.35;;;;;;;1.95;100.00;98949.44;6079005;23;20032;-76
2023/03/09 06:13:24;;;;;;;5.25;4.68;;;;;;;0.91;100.00;98775.72;6084754;23;20026;-77
2023/03/09 06:15:51;;;;;;;7.75;5.57;;;;;;;2.05;100.00;98955.03;6070877;23;20093;-77
2023/03/09 06:18:17;;;;;;;7.25;4.28;;;;;;;1.03;100.00;98779.50;6079567;23;20033;-76
2023/03/09 06:20:44;;;;;;;5.57;5.18;;;;;;;1.98;100.00;98959.66;6099319;23;20030;-77
2023/03/09 06:23:11;;;;;;;8.60;5.40;;;;;;;1.71;100.00;98928.09;6108120;23;20083;-77
2023/03/09 06:25:38;;;;;;;5.45;4.90;;;;;;;1.68;100.00;98953.25;6080004;23;20022;-77
2023/03/09 06:28:05;;;;;;;5.47;5.15;;;;;;;2.07;100.00;98980.84;6083084;23;20025;-77
2023/03/09 06:30:31;;;;;;;16.95;5.25;;;;;;;1.94;100.00;98952.09;6078583;23;20101;-77
2023/03/09 06:32:58;;;;;;;14.98;13.82;;;;;;;2.06;100.00;98973.97;6060574;23;20029;-77
2023/03/09 06:35:25;;;;;;;4.93;4.32;;;;;;;1.74;100.00;98929.69;5991547;23;20025;-78
2023/03/09 06:37:51;;;;;;;7.28;5.63;;;;;;;1.91;100.00;98944.47;6092015;23;20584;-79
2023/03/09 06:40:18;;;;;;;7.97;4.13;;;;;;;1.18;100.00;98839.09;6078267;23;20030;-76
2023/03/09 06:42:45;;;;;;;6.40;5.80;;;;;;;1.84;100.00;98910.28;6099686;23;20017;-77
2023/03/09 06:45:11;;;;;;;7.03;5.32;;;;;;;2.07;100.00;98931.69;6077938;23;20439;-77
2023/03/09 06:47:38;;;;;;;5.80;5.30;;;;;;;1.71;100.00;98893.66;6072349;23;20022;-79
2023/03/09 06:50:04;;;;;;;9.88;7.10;;;;;;;2.35;100.00;99003.72;6080206;23;20202;-77
2023/03/09 06:52:33;;;;;;;6.25;5.63;;;;;;;2.29;100.00;99002.25;6076611;23;20150;-76
2023/03/09 06:54:59;;;;;;;5.85;5.30;;;;;;;1.82;100.00;98940.53;6078162;23;20010;-78
2023/03/09 06:57:42;;;;;;;8.57;7.77;;;;;;;2.19;100.00;99008.75;6078944;23;20087;-77
2023/03/09 07:00:11;;;;;;;4.60;4.22;;;;;;;2.30;100.00;99022.03;6075680;23;20337;-78
2023/03/09 07:02:38;;;;;;;8.95;5.57;;;;;;;2.48;100.00;99010.00;6050008;23;20109;-77
2023/03/09 07:05:08;;;;;;;10.45;6.47;;;;;;;2.18;100.00;98957.91;6100647;23;20376;-77
2023/03/09 07:07:35;;;;;;;4.72;4.32;;;;;;;2.63;100.00;99024.00;6071844;23;20370;-77
2023/03/09 07:10:03;;;;;;;4.82;4.07;;;;;;;2.26;100.00;98947.19;6103977;23;20021;-76
2023/03/09 07:12:30;;;;;;;6.03;5.63;;;;;;;2.65;100.00;98993.69;6069681;23;20464;-77
2023/03/09 07:14:56;;;;;;;7.22;6.60;;;;;;;2.98;100.00;99052.59;6103909;23;20380;-79
2023/03/09 07:17:23;;;;;;;6.15;4.68;;;;;;;2.90;100.00;99008.06;6076683;23;20033;-79
2023/03/09 07:19:51;;;;;;;7.32;6.00;;;;;;;2.71;100.00;98949.38;6103479;23;20651;-78
2023/03/09 07:22:18;;;;;;;15.07;7.90;;;;;;;2.95;100.00;98977.59;6072501;23;20437;-76
2023/03/09 07:24:45;;;;;;;8.38;7.22;;;;;;;3.44;100.00;99063.31;6076192;23;20042;-76
2023/03/09 07:27:11;;;;;;;6.65;5.28;;;;;;;2.94;100.00;98983.69;6073238;23;20336;-76
2023/03/09 07:29:40;;;;;;;11.48;7.15;;;;;;;2.92;100.00;98991.53;6096343;23;20038;-76
2023/03/09 07:32:07;;;;;;;11.13;6.30;;;;;;;3.25;100.00;99049.56;6073266;23;20204;-76
2023/03/09 07:34:34;;;;;;;8.07;6.88;;;;;;;3.10;100.00;99072.72;6093920;23;20026;-77
2023/03/09 07:37:01;;;;;;;9.57;6.35;;;;;;;2.67;100.00;98991.88;6077529;23;20034;-78
2023/03/09 07:39:28;;;;;;;6.10;5.30;;;;;;;3.29;100.00;99071.88;6097225;23;20034;-77
2023/03/09 07:41:54;;;;;;;7.82;6.88;;;;;;;2.84;100.00;98985.88;6080796;23;20460;-78
2023/03/09 07:44:21;;;;;;;8.43;6.88;;;;;;;2.74;100.00;98971.69;6075524;23;20081;-79
2023/03/09 07:46:48;;;;;;;5.80;5.03;;;;;;;3.58;100.00;99086.00;6072333;23;20268;-80
2023/03/09 07:49:14;;;;;;;6.20;5.65;;;;;;;3.28;100.00;99057.22;6104865;23;20030;-78
2023/03/09 07:51:41;;;;;;;5.97;5.38;;;;;;;3.25;100.00;99039.19;6072522;23;20491;-78
2023/03/09 07:54:07;;;;;;;6.05;5.50;;;;;;;3.67;100.00;99103.72;6078653;23;20017;-79
2023/03/09 07:56:34;;;;;;;8.73;7.50;;;;;;;3.27;100.00;99027.00;6076043;23;20017;-77
2023/03/09 07:59:00;;;;;;;10.50;8.85;;;;;;;3.46;100.00;99052.88;6075749;23;20082;-77
2023/03/09 08:01:27;;;;;;;10.25;5.55;;;;;;;3.12;100.00;99008.69;6074031;23;20019;-77
2023/03/09 08:03:53;;;;;;;8.45;7.45;;;;;;;3.91;100.00;99087.81;6074231;23;20412;-79
2023/03/09 08:06:20;;;;;;;7.95;6.22;;;;;;;3.94;100.00;99106.66;6074022;23;20038;-79
2023/03/09 08:08:46;;;;;;;9.70;8.45;;;;;;;4.12;100.00;99130.84;6055314;23;20037;-78
2023/03/09 08:11:13;;;;;;;6.93;6.43;;;;;;;4.12;100.00;99130.00;6078301;23;20090;-76
2023/03/09 08:13:40;;;;;;;8.23;7.43;;;;;;;3.60;100.00;99045.25;6052270;23;20028;-78
2023/03/09 08:16:08;;;;;;;19.00;7.00;;;;;;;3.47;100.00;99024.28;6074212;23;20030;-78
2023/03/09 08:18:35;;;;;;;14.20;7.03;;;;;;;3.83;100.00;99096.00;6082007;23;20029;-77
2023/03/09 08:21:13;;;;;;;12.20;7.55;;;;;;;4.00;100.00;99100.31;6077040;23;20061;-77
2023/03/09 08:23:41;;;;;;;11.32;6.35;;;;;;;4.39;100.00;99149.38;6076639;23;20037;-78
2023/03/09 08:26:11;;;;;;;5.72;5.38;;;;;;;4.42;100.00;99157.94;6076742;23;20341;-78
2023/03/09 08:28:38;;;;;;;15.43;5.85;;;;;;;4.02;100.00;99069.09;6047245;23;20191;-80
2023/03/09 08:31:05;;;;;;;8.18;7.20;;;;;;;4.24;100.00;99138.94;6079562;23;20176;-77
2023/03/09 08:33:32;;;;;;;6.57;5.90;;;;;;;3.17;100.00;99027.47;6086231;23;20034;-78
2023/03/09 08:35:58;;;;;;;10.82;8.73;;;;;;;3.48;100.00;99131.44;6084539;23;20045;-77
2023/03/09 08:38:25;;;;;;;8.20;5.40;;;;;;;2.77;100.00;99068.22;6066280;23;20034;-78
2023/03/09 08:40:51;;;;;;;9.55;8.57;;;;;;;3.16;100.00;99100.13;6058758;23;20051;-77
2023/03/09 08:43:18;;;;;;;11.15;6.10;;;;;;;3.48;100.00;99188.50;6063161;23;20290;-75
2023/03/09 08:45:44;;;;;;;6.53;5.97;;;;;;;3.84;100.00;99195.44;6046945;23;20272;-79
2023/03/09 08:48:10;;;;;;;7.75;5.38;;;;;;;4.06;100.00;99206.44;6071040;23;20033;-79
2023/03/09 08:50:37;;;;;;;15.57;9.07;;;;;;;2.86;100.00;99003.94;6073007;23;20033;-77
2023/03/09 08:53:03;;;;;;;10.13;7.32;;;;;;;3.49;100.00;99121.00;6044338;23;20417;-77
2023/03/09 08:55:30;;;;;;;7.75;6.15;;;;;;;3.94;100.00;99158.56;6070613;23;20006;-77
2023/03/09 08:57:58;;;;;;;9.20;5.82;;;;;;;3.25;100.00;99021.06;6050402;23;20034;-77
2023/03/09 09:00:25;;;;;;;6.72;5.47;;;;;;;4.31;100.00;99172.31;6073843;23;20025;-77
2023/03/09 09:02:51;;;;;;;7.05;6.15;;;;;;;3.73;100.00;99180.41;6050254;23;20507;-77
2023/03/09 09:05:18;;;;;;;9.32;7.25;;;;;;;3.78;100.00;99220.75;6045125;23;20030;-77
2023/03/09 09:07:45;;;;;;;6.15;5.28;;;;;;;3.37;100.00;99148.38;6077015;23;20221;-77
2023/03/09 09:10:11;;;;;;;6.57;6.07;;;;;;;2.51;100.00;99027.16;6074640;23;20448;-78
2023/03/09 09:12:57;;;;;;;9.50;6.80;;;;;;;3.43;100.00;99164.53;6076262;23;20101;-76
2023/03/09 09:15:23;;;;;;;7.07;5.95;;;;;;;3.83;100.00;99250.84;6069782;23;20444;-78
2023/03/09 09:17:53;;;;;;;6.13;5.60;;;;;;;3.82;100.00;99255.19;6072293;23;20119;-77
2023/03/09 09:20:20;;;;;;;8.27;5.90;;;;;;;3.81;100.00;99219.78;6070063;23;20032;-77
2023/03/09 09:22:47;;;;;;;8.00;6.82;;;;;;;3.80;100.00;99192.16;6049101;23;20467;-77
2023/03/09 09:25:14;;;;;;;7.05;5.38;;;;;;;3.76;100.00;99264.09;6048348;23;20018;-77
2023/03/09 09:27:40;;;;;;;7.47;6.88;;;;;;;3.58;100.00;99241.63;6072238;23;20035;-77
2023/03/09 09:30:09;;;;;;;6.72;6.15;;;;;;;4.05;100.00;99284.38;6062544;23;20454;-78
2023/03/09 09:32:36;;;;;;;6.03;5.60;;;;;;;3.39;100.00;99182.84;6075158;23;20018;-76
2023/03/09 09:35:04;;;;;;;7.80;6.90;;;;;;;2.63;100.00;99074.97;6056400;23;20029;-76
2023/03/09 09:37:31;;;;;;;8.10;6.60;;;;;;;3.31;100.00;99191.91;6076944;23;20048;-77
2023/03/09 09:39:58;;;;;;;8.40;7.22;;;;;;;2.99;100.00;99103.53;6047506;23;20052;-77
2023/03/09 09:42:39;;;;;;;13.07;7.85;;;;;;;3.82;100.00;99233.59;6057323;23;20256;-78
2023/03/09 09:45:30;;;;;;;9.68;7.25;;;;;;;4.16;100.00;99279.53;6081494;23;20030;-77
2023/03/09 09:48:00;;;;;;;15.18;7.97;;;;;;;3.86;100.00;99178.03;6083263;23;20251;-77
2023/03/09 09:50:40;;;;;;;6.25;5.55;;;;;;;3.66;100.00;99137.50;6077971;23;20129;-77
2023/03/09 09:53:23;;;;;;;9.88;6.25;;;;;;;4.29;100.00;99308.31;6061644;23;20399;-77
2023/03/09 09:55:51;;;;;;;8.93;6.13;;;;;;;4.35;100.00;99241.34;6065333;23;20026;-76
2023/03/09 09:58:29;;;;;;;9.75;6.03;;;;;;;5.05;100.00;99282.84;6066561;23;20019;-77
2023/03/09 10:01:00;;;;;;;8.25;7.38;;;;;;;1.42;100.00;98695.91;6023025;23;20026;-77
2023/03/09 10:03:44;;;;;;;12.10;8.02;;;;;;;4.79;100.00;99201.00;6060869;23;20038;-78
2023/03/09 10:06:18;;;;;;;6.45;5.85;;;;;;;5.19;100.00;99282.97;6058006;23;20465;-78
2023/03/09 10:09:02;;;;;;;13.40;7.80;;;;;;;4.84;100.00;99237.19;6065345;23;20038;-79
2023/03/09 10:11:31;;;;;;;6.53;5.97;;;;;;;5.45;100.00;99300.69;6034336;23;20296;-78
2023/03/09 10:14:16;;;;;;;9.27;6.47;;;;;;;4.88;100.00;99241.28;6045634;23;20406;-78
2023/03/09 10:16:48;;;;;;;6.65;5.88;;;;;;;4.49;100.00;99247.59;6029024;23;20048;-78
2023/03/09 10:19:17;;;;;;;6.43;5.65;;;;;;;3.99;100.00;99212.88;6040838;23;20082;-78
2023/03/09 10:21:58;;;;;;;9.07;5.88;;;;;;;4.66;100.00;99322.13;6035103;23;20026;-80
2023/03/09 10:24:35;;;;;;;10.00;6.53;;;;;;;5.03;100.00;99331.47;6058636;23;20361;-78
2023/03/09 10:27:15;;;;;;;7.97;6.97;;;;;;;4.82;100.00;99317.00;6058107;23;20392;-78
2023/03/09 10:30:00;;;;;;;13.05;7.18;;;;;;;5.02;100.00;99318.56;6055647;23;20157;-79
2023/03/09 10:32:51;;;;;;;6.88;6.25;;;;;;;5.32;100.00;99355.97;6045582;23;20063;-78
2023/03/09 10:35:29;;;;;;;8.85;6.82;;;;;;;4.92;100.00;99333.78;6065187;23;20097;-79
2023/03/09 10:37:56;;;;;;;11.35;6.38;;;;;;;4.37;100.00;99197.97;6034109;23;20026;-78
2023/03/09 10:40:35;;;;;;;7.55;6.43;;;;;;;5.22;100.00;99257.72;6030598;23;20041;-78
2023/03/09 10:43:01;;;;;;;10.20;7.80;;;;;;;4.90;100.00;99169.25;6028681;23;20640;-77
2023/03/09 10:45:33;;;;;;;9.63;6.97;;;;;;;6.09;100.00;99286.78;6052974;23;20189;-78
2023/03/09 10:48:06;;;;;;;11.63;6.55;;;;;;;6.17;100.00;99305.44;6075259;23;20044;-77
2023/03/09 10:50:36;;;;;;;22.98;8.95;;;;;;;5.63;100.00;99234.63;6058292;23;20254;-78
2023/03/09 10:53:29;;;;;;;8.68;7.78;;;;;;;5.43;100.00;99198.47;6035689;23;20032;-78
2023/03/09 10:56:04;;;;;;;8.43;7.32;;;;;;;5.46;100.00;99164.50;6026388;23;20023;-78
2023/03/09 10:58:33;;;;;;;11.77;9.27;;;;;;;6.41;100.00;99322.34;6056563;23;20128;-79
2023/03/09 11:01:03;;;;;;;7.60;6.25;;;;;;;5.18;100.00;99145.22;6051209;23;20040;-80
2023/03/09 11:03:36;;;;;;;12.15;7.60;;;;;;;4.64;100.00;99084.91;6041532;23;20205;-78
2023/03/09 11:06:14;;;;;;;14.40;8.50;;;;;;;5.61;100.00;99309.34;6043506;23;20002;-78
2023/03/09 11:08:42;;;;;;;8.48;6.28;;;;;;;5.36;100.00;99221.41;6038460;23;20055;-77
2023/03/09 11:11:28;;;;;;;10.05;7.25;;;;;;;6.04;100.00;99314.84;6035701;23;20021;-78
2023/03/09 11:13:55;;;;;;;11.65;7.80;;;;;;;5.42;100.00;99239.28;6055455;23;20078;-78
2023/03/09 11:16:28;;;;;;;10.90;6.63;;;;;;;6.25;100.00;99312.81;6034647;23;20258;-77
2023/03/09 11:19:09;;;;;;;13.13;7.13;;;;;;;5.72;100.00;99249.75;6061769;23;20474;-78
2023/03/09 11:21:37;;;;;;;8.25;7.45;;;;;;;6.05;100.00;99274.84;6065892;23;20037;-78
2023/03/09 11:24:06;;;;;;;19.45;8.93;;;;;;;5.96;100.00;99246.75;6035358;23;20530;-78
2023/03/09 11:27:01;;;;;;;8.85;6.85;;;;;;;5.88;100.00;99247.13;6045489;23;20037;-77
2023/03/09 11:29:46;;;;;;;;;;;;;;;6.56;100.00;99309.28;6057723;23;20523;-78
2023/03/09 11:32:12;;;;;;;10.25;5.90;;;;;;;5.45;100.00;99108.16;6056567;23;19914;-81
2023/03/09 11:34:41;;;;;;;10.00;6.07;;;;;;;6.35;100.00;99241.03;6038822;23;20587;-78
2023/03/09 11:37:10;;;;;;;9.45;7.32;;;;;;;7.06;100.00;99320.28;6060830;23;20010;-78
2023/03/09 11:39:56;;;;;;;16.50;7.95;;;;;;;6.99;100.00;99318.97;6035327;23;20229;-79